Аэропорт: Оренбург-Центральный. Оренбург

ICAO: UWOO

METAR:
2024-04-22 22:30:00
UWOO 222230Z 07003MPS CAVOK 12/07 Q1018 R08/60D NOSIG RMK QFE753/1004
TAF:
2024-04-22 19:47:00
TAF UWOO 221947Z 2221/2321 09003G09MPS 9999 SCT030 TX24/2310Z TN13/2303Z 
  TEMPO 2221/2305 11005G13MPS 
  BECMG 2305/2307 12005G13MPS BKN020CB 
  TEMPO 2309/2315 14009G17MPS